createdAt,value
2023-04-26T00:04:59.067Z,6.40
2023-04-26T00:07:31.168Z,6.10
2023-04-26T00:10:03.119Z,5.70
2023-04-26T00:12:35.001Z,5.60
2023-04-26T00:15:07.970Z,5.60
2023-04-26T00:17:39.855Z,5.60
2023-04-26T00:20:13.645Z,5.40
2023-04-26T00:22:45.551Z,5.60
2023-04-26T00:25:17.537Z,5.10
2023-04-26T00:27:50.058Z,5.30
2023-04-26T00:30:22.551Z,5.10
2023-04-26T00:32:54.863Z,5.00
2023-04-26T00:35:26.952Z,4.60
2023-04-26T00:37:59.713Z,4.70
2023-04-26T00:40:35.515Z,5.80
2023-04-26T00:43:08.583Z,4.80
2023-04-26T00:45:40.808Z,5.20
2023-04-26T00:50:44.646Z,5.10
2023-04-26T00:53:17.188Z,4.60
2023-04-26T00:55:51.563Z,4.60
2023-04-26T00:58:23.602Z,4.40
2023-04-26T01:00:56.944Z,5.00
2023-04-26T01:03:30.124Z,5.60
2023-04-26T01:06:02.360Z,4.40
2023-04-26T01:08:34.367Z,4.10
2023-04-26T01:11:07.404Z,4.40
2023-04-26T01:13:39.667Z,4.50
2023-04-26T01:18:43.150Z,4.10
2023-04-26T01:21:20.919Z,4.40
2023-04-26T01:23:53.127Z,5.10
2023-04-26T01:28:55.369Z,4.00
2023-04-26T01:31:27.278Z,4.50
2023-04-26T01:33:59.077Z,4.20
2023-04-26T01:36:30.978Z,4.30
2023-04-26T01:39:04.903Z,4.10
2023-04-26T01:41:36.862Z,4.30
2023-04-26T01:44:08.956Z,4.10
2023-04-26T01:49:11.230Z,4.60
2023-04-26T01:51:43.110Z,4.20
2023-04-26T01:54:14.922Z,4.50
2023-04-26T01:56:46.734Z,4.70
2023-04-26T01:59:18.795Z,4.10
2023-04-26T02:01:51.053Z,4.20
2023-04-26T02:04:24.190Z,4.10
2023-04-26T02:06:57.192Z,4.10
2023-04-26T02:09:29.313Z,5.00
2023-04-26T02:12:01.135Z,4.20
2023-04-26T02:14:33.447Z,4.60
2023-04-26T02:19:36.819Z,3.80
2023-04-26T02:22:08.979Z,4.60
2023-04-26T02:27:11.272Z,3.30
2023-04-26T02:29:44.789Z,4.20
2023-04-26T02:32:17.342Z,4.00
2023-04-26T02:37:19.695Z,4.10
2023-04-26T02:39:54.087Z,3.60
2023-04-26T02:42:26.803Z,4.70
2023-04-26T02:44:58.980Z,4.20
2023-04-26T02:47:30.869Z,4.60
2023-04-26T02:50:06.421Z,4.00
2023-04-26T02:52:38.967Z,4.20
2023-04-26T02:55:11.935Z,4.30
2023-04-26T02:57:43.819Z,3.80
2023-04-26T03:00:16.700Z,3.80
2023-04-26T03:02:48.602Z,3.80
2023-04-26T03:05:21.278Z,3.90
2023-04-26T03:07:53.263Z,4.20
2023-04-26T03:10:25.005Z,4.40
2023-04-26T03:12:56.943Z,4.00
2023-04-26T03:15:28.845Z,3.90
2023-04-26T03:18:01.001Z,3.80
2023-04-26T03:23:04.065Z,3.30
2023-04-26T03:25:36.962Z,3.70
2023-04-26T03:28:09.238Z,3.70
2023-04-26T03:30:41.310Z,3.60
2023-04-26T03:33:13.812Z,3.60
2023-04-26T03:38:17.304Z,3.90
2023-04-26T03:40:50.162Z,3.30
2023-04-26T03:43:21.902Z,3.80
2023-04-26T03:45:54.051Z,4.30
2023-04-26T03:48:25.966Z,3.40
2023-04-26T03:50:58.205Z,3.60
2023-04-26T03:53:30.193Z,4.50
2023-04-26T03:56:02.066Z,4.10
2023-04-26T03:58:36.364Z,3.80
2023-04-26T04:01:08.755Z,3.50
2023-04-26T04:03:41.560Z,3.70
2023-04-26T04:06:14.125Z,3.40
2023-04-26T04:08:48.227Z,4.00
2023-04-26T04:11:20.451Z,4.90
2023-04-26T04:16:22.827Z,4.70
2023-04-26T04:18:55.688Z,5.50
2023-04-26T04:21:27.707Z,3.80
2023-04-26T04:24:00.692Z,4.10
2023-04-26T04:26:32.470Z,3.40
2023-04-26T04:29:09.360Z,3.30
2023-04-26T04:31:43.043Z,3.70
2023-04-26T04:34:16.556Z,3.30
2023-04-26T04:36:49.097Z,3.30
2023-04-26T04:39:21.161Z,2.50
2023-04-26T04:41:54.491Z,2.90
2023-04-26T04:44:27.136Z,2.70
2023-04-26T04:46:59.835Z,3.00
2023-04-26T04:52:03.476Z,2.50
2023-04-26T04:54:35.634Z,2.20
2023-04-26T04:57:07.870Z,2.60
2023-04-26T04:59:40.859Z,2.30
2023-04-26T05:04:44.322Z,2.60
2023-04-26T05:07:16.638Z,2.30
2023-04-26T05:12:19.085Z,2.40
2023-04-26T05:14:51.230Z,2.60
2023-04-26T05:17:23.390Z,3.30
2023-04-26T05:19:55.584Z,2.20
2023-04-26T05:22:27.765Z,2.20
2023-04-26T05:27:31.199Z,2.20
2023-04-26T05:30:40.791Z,2.30
2023-04-26T05:33:23.451Z,2.40
2023-04-26T05:36:12.455Z,2.20
2023-04-26T05:38:44.244Z,2.20
2023-04-26T05:41:16.185Z,2.10
2023-04-26T05:43:48.868Z,1.60
2023-04-26T05:46:21.097Z,2.00
2023-04-26T05:48:53.180Z,1.80
2023-04-26T05:51:24.906Z,2.50
2023-04-26T05:53:57.381Z,2.50
2023-04-26T05:56:29.498Z,2.00
2023-04-26T06:01:32.113Z,1.70
2023-04-26T06:04:04.279Z,1.90
2023-04-26T06:06:41.464Z,1.80
2023-04-26T06:09:13.629Z,1.90
2023-04-26T06:11:45.474Z,1.70
2023-04-26T06:17:02.688Z,1.70
2023-04-26T06:22:04.709Z,2.30
2023-04-26T06:24:36.326Z,1.90
2023-04-26T06:27:09.331Z,2.10
2023-04-26T06:29:41.717Z,1.30
2023-04-26T06:32:13.457Z,2.10
2023-04-26T06:34:45.761Z,2.10
2023-04-26T06:37:18.221Z,1.90
2023-04-26T06:39:50.168Z,2.10
2023-04-26T06:42:22.758Z,1.50
2023-04-26T06:45:08.904Z,1.80
2023-04-26T06:47:41.366Z,2.00
2023-04-26T06:50:14.180Z,1.80
2023-04-26T06:52:45.943Z,1.90
2023-04-26T06:55:17.736Z,1.30
2023-04-26T06:57:50.699Z,1.90
2023-04-26T07:00:23.561Z,1.60
2023-04-26T07:02:55.483Z,1.70
2023-04-26T07:05:27.486Z,1.70
2023-04-26T07:07:59.235Z,1.60
2023-04-26T07:10:32.097Z,1.60
2023-04-26T07:13:09.404Z,1.80
2023-04-26T07:15:42.349Z,2.00
2023-04-26T07:18:14.430Z,1.40
2023-04-26T07:20:46.318Z,1.40
2023-04-26T07:23:18.035Z,1.40
2023-04-26T07:25:50.049Z,1.40
2023-04-26T07:30:52.213Z,1.90
2023-04-26T07:35:59.793Z,1.40
2023-04-26T07:38:31.725Z,1.30
2023-04-26T07:41:04.678Z,1.70
2023-04-26T07:43:36.434Z,1.90
2023-04-26T07:46:08.522Z,1.40
2023-04-26T07:48:40.438Z,1.60
2023-04-26T07:53:43.738Z,1.40
2023-04-26T07:56:15.684Z,1.70
2023-04-26T08:01:18.062Z,1.70
2023-04-26T08:03:50.225Z,1.40
2023-04-26T08:06:22.940Z,1.50
2023-04-26T08:08:54.718Z,1.70
2023-04-26T08:11:26.808Z,6.50
2023-04-26T08:13:58.785Z,1.20
2023-04-26T08:19:03.053Z,2.30
2023-04-26T08:21:34.924Z,3.10
2023-04-26T08:24:07.597Z,3.40
2023-04-26T08:26:39.468Z,2.00
2023-04-26T08:31:41.946Z,1.40
2023-04-26T08:34:13.740Z,1.30
2023-04-26T08:36:46.001Z,1.30
2023-04-26T08:39:18.555Z,1.10
2023-04-26T08:41:54.853Z,2.80
2023-04-26T08:44:29.373Z,1.50
2023-04-26T08:47:11.270Z,1.10
2023-04-26T08:49:45.229Z,1.10
2023-04-26T08:52:22.991Z,1.20
2023-04-26T08:54:57.617Z,1.40
2023-04-26T08:57:32.763Z,1.50
2023-04-26T09:00:06.968Z,1.70
2023-04-26T09:02:41.524Z,2.00
2023-04-26T09:05:14.173Z,1.20
2023-04-26T09:07:48.144Z,1.60
2023-04-26T09:10:22.650Z,1.50
2023-04-26T09:12:56.120Z,1.90
2023-04-26T09:15:28.629Z,1.20
2023-04-26T09:18:18.816Z,1.40
2023-04-26T09:21:04.999Z,1.30
2023-04-26T09:23:37.522Z,1.40
2023-04-26T09:26:22.785Z,1.30
2023-04-26T09:29:13.969Z,1.30
2023-04-26T09:31:49.558Z,1.10
2023-04-26T09:34:21.807Z,1.40
2023-04-26T09:36:56.923Z,1.30
2023-04-26T09:39:35.100Z,1.40
2023-04-26T09:42:07.906Z,1.20
2023-04-26T09:44:40.420Z,1.40
2023-04-26T09:47:13.390Z,3.20
2023-04-26T09:49:50.699Z,1.30
2023-04-26T09:52:22.540Z,1.30
2023-04-26T09:57:25.427Z,1.00
2023-04-26T09:59:57.608Z,1.60
2023-04-26T10:02:30.091Z,1.10
2023-04-26T10:05:03.211Z,1.70
2023-04-26T10:07:37.054Z,1.60
2023-04-26T10:10:11.531Z,1.30
2023-04-26T10:12:44.719Z,1.40
2023-04-26T10:15:18.198Z,1.40
2023-04-26T10:17:52.031Z,1.10
2023-04-26T10:20:25.907Z,0.70
2023-04-26T10:23:01.593Z,1.10
2023-04-26T10:25:40.719Z,0.90
2023-04-26T10:28:12.743Z,1.40
2023-04-26T10:30:58.715Z,1.40
2023-04-26T10:33:31.668Z,1.50
2023-04-26T10:36:09.185Z,1.30
2023-04-26T10:38:42.640Z,1.00
2023-04-26T10:41:32.271Z,1.10
2023-04-26T10:44:41.237Z,1.00
2023-04-26T10:47:25.889Z,1.00
2023-04-26T10:50:06.172Z,1.00
2023-04-26T10:52:39.697Z,0.80
2023-04-26T10:55:11.619Z,1.00
2023-04-26T11:00:34.099Z,0.90
2023-04-26T11:03:12.763Z,1.10
2023-04-26T11:05:57.299Z,0.90
2023-04-26T11:08:32.015Z,2.10
2023-04-26T11:11:12.171Z,1.30
2023-04-26T11:13:45.236Z,1.30
2023-04-26T11:16:18.405Z,0.90
2023-04-26T11:18:50.613Z,1.00
2023-04-26T11:21:24.242Z,1.30
2023-04-26T11:23:59.148Z,2.80
2023-04-26T11:26:36.653Z,1.20
2023-04-26T11:29:16.062Z,1.30
2023-04-26T11:31:54.354Z,1.30
2023-04-26T11:34:32.764Z,1.10
2023-04-26T11:37:06.302Z,0.60
2023-04-26T11:39:39.090Z,0.80
2023-04-26T11:42:13.986Z,1.10
2023-04-26T11:44:47.654Z,1.50
2023-04-26T11:47:20.812Z,1.10
2023-04-26T11:49:53.129Z,0.80
2023-04-26T11:52:25.434Z,0.80
2023-04-26T11:55:07.790Z,1.30
2023-04-26T11:57:40.334Z,1.60
2023-04-26T12:02:50.907Z,1.30
2023-04-26T12:05:28.372Z,0.90
2023-04-26T12:08:01.572Z,1.20
2023-04-26T12:10:35.099Z,1.60
2023-04-26T12:13:07.281Z,1.10
2023-04-26T12:15:40.183Z,0.80
2023-04-26T12:18:13.450Z,0.80
2023-04-26T12:20:47.292Z,0.80
2023-04-26T12:23:19.742Z,0.90
2023-04-26T12:26:02.128Z,1.00
2023-04-26T12:28:34.064Z,1.50
2023-04-26T12:31:07.574Z,1.10
2023-04-26T12:33:39.546Z,1.30
2023-04-26T12:36:13.301Z,1.20
2023-04-26T12:38:45.194Z,0.60
2023-04-26T12:41:17.292Z,1.10
2023-04-26T12:46:19.609Z,6.10
2023-04-26T12:48:51.470Z,1.20
2023-04-26T12:51:23.309Z,1.10
2023-04-26T12:53:55.167Z,2.80
2023-04-26T12:56:27.086Z,4.70
2023-04-26T12:58:58.898Z,1.40
2023-04-26T13:01:33.651Z,1.70
2023-04-26T13:04:06.175Z,1.20
2023-04-26T13:06:38.267Z,11.90
2023-04-26T13:09:12.796Z,1.90
2023-04-26T13:11:44.924Z,6.20
2023-04-26T13:16:51.282Z,2.90
2023-04-26T13:19:26.569Z,57.30
2023-04-26T13:21:58.379Z,6.60
2023-04-26T13:24:30.288Z,3.80
2023-04-26T13:27:02.591Z,4.80
2023-04-26T13:29:35.320Z,2.40
2023-04-26T13:32:08.304Z,3.70
2023-04-26T13:34:41.204Z,1.80
2023-04-26T13:37:13.260Z,1.50
2023-04-26T13:39:46.455Z,2.30
2023-04-26T13:42:18.536Z,1.70
2023-04-26T13:47:21.152Z,4.20
2023-04-26T13:49:53.251Z,5.10
2023-04-26T13:54:55.668Z,6.70
2023-04-26T13:57:27.709Z,3.70
2023-04-26T14:02:29.940Z,3.80
2023-04-26T14:07:32.774Z,1.40
2023-04-26T14:10:05.307Z,0.90
2023-04-26T14:12:37.352Z,1.10
2023-04-26T14:15:11.902Z,2.40
2023-04-26T14:17:46.792Z,1.10
2023-04-26T14:20:19.230Z,1.10
2023-04-26T14:22:51.245Z,1.00
2023-04-26T14:25:23.111Z,1.00
2023-04-26T14:27:55.648Z,0.60
2023-04-26T14:30:28.424Z,1.00
2023-04-26T14:33:00.249Z,1.10
2023-04-26T14:35:32.285Z,1.10
2023-04-26T14:40:35.301Z,1.20
2023-04-26T14:43:07.243Z,1.20
2023-04-26T14:45:44.618Z,1.10
2023-04-26T14:48:17.203Z,1.10
2023-04-26T14:50:49.306Z,1.10
2023-04-26T14:55:58.218Z,1.20
2023-04-26T14:58:30.000Z,1.20
2023-04-26T15:01:02.607Z,1.30
2023-04-26T15:03:35.118Z,1.20
2023-04-26T15:06:09.680Z,1.00
2023-04-26T15:08:41.899Z,1.10
2023-04-26T15:13:43.989Z,1.00
2023-04-26T15:16:16.884Z,1.10
2023-04-26T15:18:48.922Z,1.30
2023-04-26T15:21:23.779Z,1.10
2023-04-26T15:23:56.443Z,0.90
2023-04-26T15:26:31.978Z,1.00
2023-04-26T15:29:04.986Z,0.80
2023-04-26T15:31:38.510Z,1.00
2023-04-26T15:34:11.321Z,1.50
2023-04-26T15:36:44.080Z,1.00
2023-04-26T15:39:15.768Z,1.10
2023-04-26T15:41:49.033Z,1.00
2023-04-26T15:44:36.223Z,0.60
2023-04-26T15:47:10.775Z,0.90
2023-04-26T15:49:42.966Z,1.10
2023-04-26T15:52:17.037Z,2.40
2023-04-26T15:54:49.370Z,3.10
2023-04-26T15:57:21.111Z,2.00
2023-04-26T16:02:24.182Z,1.10
2023-04-26T16:07:26.968Z,1.30
2023-04-26T16:09:58.877Z,1.10
2023-04-26T16:12:31.513Z,3.20
2023-04-26T16:15:03.386Z,2.10
2023-04-26T16:17:35.445Z,12.90
2023-04-26T16:22:39.284Z,1.10
2023-04-26T16:25:11.981Z,1.20
2023-04-26T16:30:15.167Z,2.50
2023-04-26T16:32:46.985Z,3.10
2023-04-26T16:35:19.241Z,28.60
2023-04-26T16:37:51.594Z,6.50
2023-04-26T16:40:24.607Z,2.40
2023-04-26T16:42:56.560Z,12.10
2023-04-26T16:45:28.529Z,40.90
2023-04-26T16:48:00.413Z,12.70
2023-04-26T16:50:32.608Z,10.80
2023-04-26T16:53:04.592Z,7.80
2023-04-26T16:55:36.446Z,10.10
2023-04-26T16:58:09.844Z,10.50
2023-04-26T17:00:43.387Z,3.00
2023-04-26T17:03:15.874Z,3.20
2023-04-26T17:05:49.245Z,2.20
2023-04-26T17:08:22.562Z,2.30
2023-04-26T17:10:54.715Z,1.40
2023-04-26T17:13:29.557Z,1.60
2023-04-26T17:16:01.994Z,1.40
2023-04-26T17:18:33.828Z,2.40
2023-04-26T17:21:07.491Z,3.50
2023-04-26T17:23:39.394Z,2.90
2023-04-26T17:26:11.301Z,1.60
2023-04-26T17:28:43.259Z,2.90
2023-04-26T17:31:15.119Z,3.20
2023-04-26T17:33:46.926Z,2.50
2023-04-26T17:36:19.547Z,3.40
2023-04-26T17:38:51.302Z,3.10
2023-04-26T17:41:24.173Z,2.70
2023-04-26T17:43:55.879Z,2.90
2023-04-26T17:46:27.819Z,3.40
2023-04-26T17:48:59.836Z,2.00
2023-04-26T17:51:31.673Z,2.20
2023-04-26T17:54:04.060Z,3.00
2023-04-26T17:59:06.635Z,2.90
2023-04-26T18:01:38.605Z,2.70
2023-04-26T18:04:11.134Z,3.50
2023-04-26T18:06:44.051Z,3.50
2023-04-26T18:09:16.037Z,3.10
2023-04-26T18:11:48.103Z,2.10
2023-04-26T18:14:20.129Z,2.50
2023-04-26T18:16:52.121Z,2.40
2023-04-26T18:19:23.927Z,2.60
2023-04-26T18:21:55.875Z,3.30
2023-04-26T18:24:30.401Z,3.40
2023-04-26T18:27:02.666Z,2.50
2023-04-26T18:29:34.973Z,2.40
2023-04-26T18:32:07.214Z,2.30
2023-04-26T18:34:40.108Z,2.70
2023-04-26T18:37:37.993Z,2.00
2023-04-26T18:40:20.099Z,2.30
2023-04-26T18:42:52.388Z,2.60
2023-04-26T18:45:24.316Z,2.80
2023-04-26T18:47:56.837Z,2.50
2023-04-26T18:50:29.240Z,2.90
2023-04-26T18:53:01.597Z,2.40
2023-04-26T18:55:34.235Z,2.80
2023-04-26T18:58:06.550Z,2.90
2023-04-26T19:00:39.213Z,3.10
2023-04-26T19:03:11.302Z,4.40
2023-04-26T19:05:45.848Z,3.60
2023-04-26T19:08:18.402Z,4.70
2023-04-26T19:10:50.722Z,11.40
2023-04-26T19:13:22.765Z,11.30
2023-04-26T19:18:25.320Z,9.60
2023-04-26T19:23:28.552Z,8.90
2023-04-26T19:26:08.270Z,8.20
2023-04-26T19:28:40.933Z,7.40
2023-04-26T19:31:16.513Z,6.30
2023-04-26T19:33:48.976Z,6.30
2023-04-26T19:36:21.082Z,6.00
2023-04-26T19:38:53.094Z,5.70
2023-04-26T19:41:24.961Z,5.10
2023-04-26T19:46:28.631Z,5.40
2023-04-26T19:49:01.015Z,6.80
2023-04-26T19:51:34.486Z,5.40
2023-04-26T19:54:07.013Z,5.10
2023-04-26T19:56:39.787Z,5.50
2023-04-26T19:59:14.119Z,4.60
2023-04-26T20:01:47.123Z,4.00
2023-04-26T20:04:19.514Z,4.60
2023-04-26T20:06:52.593Z,5.20
2023-04-26T20:09:24.406Z,16.20
2023-04-26T20:11:56.244Z,46.50
2023-04-26T20:14:30.326Z,24.30
2023-04-26T20:17:02.566Z,33.90
2023-04-26T20:19:34.602Z,22.00
2023-04-26T20:22:06.692Z,12.60
2023-04-26T20:24:38.387Z,10.50
2023-04-26T20:27:10.547Z,9.50
2023-04-26T20:32:54.791Z,13.70
2023-04-26T20:35:32.684Z,12.70
2023-04-26T20:38:04.644Z,13.70
2023-04-26T20:40:36.499Z,14.00
2023-04-26T20:43:08.329Z,12.40
2023-04-26T20:45:41.031Z,11.10
2023-04-26T20:48:13.029Z,8.90
2023-04-26T20:50:44.910Z,8.20
2023-04-26T20:53:17.168Z,10.10
2023-04-26T20:58:19.501Z,11.60
2023-04-26T21:00:52.668Z,12.50
2023-04-26T21:03:24.745Z,9.70
2023-04-26T21:08:27.115Z,8.60
2023-04-26T21:10:58.962Z,8.40
2023-04-26T21:13:32.147Z,16.60
2023-04-26T21:16:04.027Z,26.40
2023-04-26T21:18:36.045Z,20.40
2023-04-26T21:21:07.987Z,18.60
2023-04-26T21:23:39.937Z,19.30
2023-04-26T21:26:11.831Z,19.20
2023-04-26T21:28:43.612Z,13.30
2023-04-26T21:31:15.688Z,7.70
2023-04-26T21:36:17.940Z,10.10
2023-04-26T21:38:49.840Z,17.60
2023-04-26T21:41:22.755Z,15.30
2023-04-26T21:43:55.198Z,16.00
2023-04-26T21:46:27.294Z,14.60
2023-04-26T21:51:29.709Z,18.60
2023-04-26T21:54:01.544Z,19.30
2023-04-26T21:56:33.952Z,13.80
2023-04-26T21:59:05.705Z,11.30
2023-04-26T22:01:37.413Z,9.90
2023-04-26T22:04:09.455Z,10.20
2023-04-26T22:09:12.043Z,9.60
2023-04-26T22:11:44.270Z,12.70
2023-04-26T22:14:16.158Z,10.50
2023-04-26T22:16:48.270Z,9.30
2023-04-26T22:21:50.636Z,9.70
2023-04-26T22:26:52.738Z,9.90
2023-04-26T22:29:24.666Z,7.20
2023-04-26T22:31:56.646Z,7.30
2023-04-26T22:37:06.120Z,7.20
2023-04-26T22:39:45.213Z,8.30
2023-04-26T22:42:17.077Z,8.30
2023-04-26T22:44:48.929Z,8.20
2023-04-26T22:47:22.912Z,8.30
2023-04-26T22:49:54.669Z,9.70
2023-04-26T22:52:31.651Z,10.00
2023-04-26T22:55:03.952Z,9.50
2023-04-26T22:57:35.740Z,9.30
2023-04-26T23:00:11.902Z,9.10
2023-04-26T23:02:43.946Z,8.60
2023-04-26T23:05:16.293Z,8.40
2023-04-26T23:07:48.190Z,7.90
2023-04-26T23:10:20.037Z,7.00
2023-04-26T23:12:53.203Z,7.60
2023-04-26T23:15:25.527Z,7.60
2023-04-26T23:17:57.461Z,6.60
2023-04-26T23:20:29.562Z,6.70
2023-04-26T23:23:01.626Z,7.10
2023-04-26T23:25:33.492Z,6.80
2023-04-26T23:28:05.631Z,6.40
2023-04-26T23:30:37.492Z,6.40
2023-04-26T23:33:09.499Z,7.80
2023-04-26T23:35:43.816Z,7.00
2023-04-26T23:38:15.718Z,6.40
2023-04-26T23:40:47.683Z,6.60
2023-04-26T23:43:19.705Z,6.80
2023-04-26T23:45:51.616Z,6.80
2023-04-26T23:48:23.509Z,6.30
2023-04-26T23:50:55.336Z,6.20
2023-04-26T23:53:27.687Z,6.60
2023-04-26T23:55:59.459Z,6.70
2023-04-26T23:58:32.067Z,5.80
